createdAt,value
2019-04-19T00:01:49.228Z,12.60
2019-04-19T00:04:16.196Z,12.60
2019-04-19T00:06:53.220Z,12.50
2019-04-19T00:09:36.205Z,12.50
2019-04-19T00:12:07.169Z,12.50
2019-04-19T00:14:25.656Z,12.40
2019-04-19T00:16:59.567Z,12.40
2019-04-19T00:19:45.527Z,12.40
2019-04-19T00:22:22.263Z,12.30
2019-04-19T00:24:33.747Z,12.30
2019-04-19T00:27:04.081Z,12.30
2019-04-19T00:29:42.494Z,12.20
2019-04-19T00:32:23.154Z,12.10
2019-04-19T00:34:39.854Z,12.00
2019-04-19T00:37:12.053Z,12.00
2019-04-19T00:40:22.680Z,12.10
2019-04-19T00:43:12.746Z,12.10
2019-04-19T00:45:59.810Z,12.20
2019-04-19T00:48:27.076Z,12.30
2019-04-19T00:50:57.602Z,12.30
2019-04-19T00:53:25.262Z,12.30
2019-04-19T00:55:54.389Z,12.30
2019-04-19T00:58:24.398Z,12.40
2019-04-19T01:00:49.181Z,12.40
2019-04-19T01:03:26.594Z,12.40
2019-04-19T01:05:59.073Z,12.30
2019-04-19T01:08:25.941Z,12.20
2019-04-19T01:11:12.686Z,12.10
2019-04-19T01:13:47.720Z,12.00
2019-04-19T01:16:12.308Z,11.80
2019-04-19T01:18:44.438Z,11.40
2019-04-19T01:21:05.081Z,11.10
2019-04-19T01:23:44.280Z,10.90
2019-04-19T01:26:10.591Z,10.70
2019-04-19T01:28:40.052Z,10.60
2019-04-19T01:31:17.332Z,10.60
2019-04-19T01:33:45.175Z,10.50
2019-04-19T01:36:14.689Z,10.40
2019-04-19T01:38:51.309Z,10.40
2019-04-19T01:41:29.372Z,10.40
2019-04-19T01:44:20.516Z,10.40
2019-04-19T01:46:52.528Z,10.30
2019-04-19T01:49:22.534Z,10.30
2019-04-19T01:52:09.386Z,10.20
2019-04-19T01:54:35.866Z,10.10
2019-04-19T01:56:57.271Z,10.00
2019-04-19T01:59:31.092Z,10.00
2019-04-19T02:02:01.497Z,9.90
2019-04-19T02:04:30.949Z,9.90
2019-04-19T02:07:04.191Z,9.90
2019-04-19T02:09:48.659Z,9.80
2019-04-19T02:12:22.590Z,9.70
2019-04-19T02:14:48.248Z,9.80
2019-04-19T02:17:11.971Z,9.70
2019-04-19T02:19:47.967Z,9.50
2019-04-19T02:22:20.173Z,9.30
2019-04-19T02:24:50.289Z,9.20
2019-04-19T02:27:17.991Z,9.10
2019-04-19T02:29:52.778Z,9.10
2019-04-19T02:32:34.189Z,9.10
2019-04-19T02:37:51.431Z,9.40
2019-04-19T02:40:41.168Z,9.50
2019-04-19T02:42:50.872Z,9.40
2019-04-19T02:45:35.948Z,9.30
2019-04-19T02:47:57.847Z,9.20
2019-04-19T02:50:56.568Z,9.10
2019-04-19T02:53:01.851Z,9.00
2019-04-19T02:55:31.901Z,8.90
2019-04-19T02:58:14.485Z,8.80
2019-04-19T03:01:17.314Z,8.70
2019-04-19T03:03:52.631Z,8.60
2019-04-19T03:06:04.990Z,8.50
2019-04-19T03:08:16.594Z,8.50
2019-04-19T03:11:00.865Z,8.40
2019-04-19T03:13:31.331Z,8.40
2019-04-19T03:16:08.593Z,8.40
2019-04-19T03:18:38.694Z,8.40
2019-04-19T03:21:08.404Z,8.40
2019-04-19T03:23:36.609Z,8.40
2019-04-19T03:26:17.370Z,8.50
2019-04-19T03:28:39.655Z,8.50
2019-04-19T03:34:04.991Z,8.60
2019-04-19T03:36:23.108Z,8.60
2019-04-19T03:38:57.970Z,8.60
2019-04-19T03:41:46.731Z,8.60
2019-04-19T03:44:41.574Z,8.50
2019-04-19T03:47:18.243Z,8.40
2019-04-19T03:49:45.006Z,8.40
2019-04-19T03:52:20.126Z,8.40
2019-04-19T03:54:48.603Z,8.30
2019-04-19T03:57:18.658Z,8.40
2019-04-19T03:59:37.161Z,8.50
2019-04-19T04:02:07.822Z,8.50
2019-04-19T04:04:38.491Z,8.40
2019-04-19T04:07:15.486Z,8.40
2019-04-19T04:09:49.756Z,8.30
2019-04-19T04:12:36.979Z,8.40
2019-04-19T04:15:14.165Z,8.40
2019-04-19T04:17:33.563Z,8.30
2019-04-19T04:20:05.286Z,8.30
2019-04-19T04:22:38.995Z,8.10
2019-04-19T04:25:15.179Z,8.10
2019-04-19T04:27:52.385Z,8.10
2019-04-19T04:30:21.126Z,8.10
2019-04-19T04:32:56.959Z,8.20
2019-04-19T04:35:31.754Z,8.30
2019-04-19T04:37:58.567Z,8.50
2019-04-19T04:40:19.103Z,8.60
2019-04-19T04:43:03.912Z,8.60
2019-04-19T04:45:55.035Z,8.70
2019-04-19T04:48:26.629Z,8.60
2019-04-19T04:51:15.851Z,8.70
2019-04-19T04:53:55.196Z,8.90
2019-04-19T04:56:48.541Z,9.10
2019-04-19T04:59:11.407Z,9.10
2019-04-19T05:01:49.201Z,9.20
2019-04-19T05:04:23.828Z,9.30
2019-04-19T05:07:19.604Z,9.50
2019-04-19T05:09:32.175Z,10.10
2019-04-19T05:12:09.086Z,10.60
2019-04-19T05:14:33.939Z,11.10
2019-04-19T05:17:22.218Z,11.70
2019-04-19T05:19:46.738Z,12.30
2019-04-19T05:22:11.445Z,12.50
2019-04-19T05:24:51.430Z,12.80
2019-04-19T05:27:22.052Z,13.20
2019-04-19T05:29:37.652Z,13.30
2019-04-19T05:32:10.124Z,13.30
2019-04-19T05:34:51.096Z,13.40
2019-04-19T05:37:22.838Z,13.70
2019-04-19T05:40:07.981Z,14.00
2019-04-19T05:42:52.383Z,14.30
2019-04-19T05:45:50.395Z,14.80
2019-04-19T05:47:56.693Z,15.30
2019-04-19T05:50:44.592Z,15.80
2019-04-19T05:53:07.889Z,16.00
2019-04-19T05:55:24.007Z,16.10
2019-04-19T05:58:08.949Z,16.40
2019-04-19T06:00:43.656Z,16.10
2019-04-19T06:03:10.393Z,16.10
2019-04-19T06:05:58.873Z,16.20
2019-04-19T06:08:12.334Z,16.60
2019-04-19T06:10:44.477Z,17.00
2019-04-19T06:13:11.734Z,17.50
2019-04-19T06:15:59.772Z,18.00
2019-04-19T06:18:42.608Z,18.50
2019-04-19T06:23:53.885Z,17.10
2019-04-19T06:26:53.418Z,16.20
2019-04-19T06:29:06.216Z,15.80
2019-04-19T06:31:32.799Z,15.80
2019-04-19T06:33:57.950Z,16.00
2019-04-19T06:36:16.245Z,16.20
2019-04-19T06:38:46.578Z,16.20
2019-04-19T06:41:21.709Z,16.60
2019-04-19T06:43:58.922Z,17.50
2019-04-19T06:46:36.121Z,18.40
2019-04-19T06:49:02.645Z,18.80
2019-04-19T06:51:34.763Z,18.80
2019-04-19T06:54:02.508Z,18.40
2019-04-19T06:56:34.941Z,18.40
2019-04-19T06:59:14.089Z,18.70
2019-04-19T07:01:42.041Z,19.50
2019-04-19T07:04:06.890Z,19.60
2019-04-19T07:06:53.735Z,19.70
2019-04-19T07:09:39.498Z,20.50
2019-04-19T07:12:04.458Z,21.00
2019-04-19T07:14:19.669Z,21.50
2019-04-19T07:17:05.585Z,21.40
2019-04-19T07:19:41.192Z,20.90
2019-04-19T07:22:04.993Z,20.70
2019-04-19T07:24:44.344Z,20.30
2019-04-19T07:27:12.282Z,20.10
2019-04-19T07:29:25.517Z,20.50
2019-04-19T07:31:55.827Z,20.90
2019-04-19T07:34:41.970Z,20.60
2019-04-19T07:37:16.986Z,20.30
2019-04-19T07:39:56.641Z,20.90
2019-04-19T07:42:22.698Z,21.60
2019-04-19T07:44:46.001Z,22.10
2019-04-19T07:47:30.444Z,21.50
2019-04-19T07:50:03.910Z,20.80
2019-04-19T07:52:26.577Z,20.00
2019-04-19T07:55:00.529Z,19.40
2019-04-19T08:00:28.808Z,19.30
2019-04-19T08:03:01.693Z,19.70
2019-04-19T08:05:31.192Z,19.90
2019-04-19T08:08:13.882Z,20.20
2019-04-19T08:10:33.478Z,20.10
2019-04-19T08:13:14.002Z,20.20
2019-04-19T08:28:09.515Z,19.50
2019-04-19T08:30:36.222Z,19.70
2019-04-19T08:32:56.459Z,19.70
2019-04-19T08:35:27.839Z,19.40
2019-04-19T08:38:04.942Z,19.30
2019-04-19T08:40:50.317Z,19.30
2019-04-19T08:43:21.023Z,19.30
2019-04-19T08:45:48.655Z,19.20
2019-04-19T08:48:57.679Z,19.30
2019-04-19T08:51:44.881Z,19.50
2019-04-19T08:54:39.256Z,19.50
2019-04-19T08:56:54.578Z,19.80
2019-04-19T08:59:47.590Z,19.80
2019-04-19T09:02:10.826Z,19.80
2019-04-19T09:04:42.632Z,19.80
2019-04-19T09:10:00.262Z,20.00
2019-04-19T09:12:18.425Z,20.40
2019-04-19T09:14:51.953Z,20.80
2019-04-19T09:17:24.644Z,21.00
2019-04-19T09:22:25.408Z,21.10
2019-04-19T09:24:51.793Z,20.80
2019-04-19T09:27:37.307Z,20.60
2019-04-19T09:30:05.789Z,20.70
2019-04-19T09:32:23.005Z,21.00
2019-04-19T09:34:56.810Z,21.10
2019-04-19T09:37:32.613Z,21.00
2019-04-19T09:39:59.557Z,21.20
2019-04-19T09:42:36.633Z,21.40
2019-04-19T09:45:00.093Z,21.40
2019-04-19T09:47:29.166Z,21.90
2019-04-19T09:50:10.066Z,22.20
2019-04-19T09:52:56.832Z,22.00
2019-04-19T09:55:26.887Z,22.30
2019-04-19T09:58:04.377Z,23.50
2019-04-19T10:00:16.592Z,24.80
2019-04-19T10:02:48.856Z,26.30
2019-04-19T10:05:16.749Z,26.70
2019-04-19T10:07:48.133Z,27.70
2019-04-19T10:10:18.858Z,28.30
2019-04-19T10:12:50.228Z,28.30
2019-04-19T10:15:42.619Z,28.30
2019-04-19T10:18:14.625Z,28.60
2019-04-19T10:21:09.991Z,29.30
2019-04-19T10:23:37.970Z,29.50
2019-04-19T10:26:18.097Z,29.20
2019-04-19T10:28:48.799Z,29.60
2019-04-19T10:31:25.370Z,29.40
2019-04-19T10:33:59.503Z,29.00
2019-04-19T10:36:28.809Z,29.90
2019-04-19T10:38:59.436Z,30.40
2019-04-19T10:41:31.983Z,31.10
2019-04-19T10:44:10.598Z,30.80
2019-04-19T10:46:36.582Z,30.30
2019-04-19T10:49:14.301Z,29.70
2019-04-19T10:51:43.971Z,29.40
2019-04-19T10:54:14.905Z,29.20
2019-04-19T10:57:04.351Z,29.70
2019-04-19T10:59:34.755Z,29.30
2019-04-19T11:02:06.437Z,29.30
2019-04-19T11:04:36.839Z,29.30
2019-04-19T11:07:09.532Z,28.90
2019-04-19T11:09:39.895Z,28.50
2019-04-19T11:12:13.444Z,28.70
2019-04-19T11:14:44.149Z,28.90
2019-04-19T11:17:15.807Z,29.30
2019-04-19T11:20:00.992Z,29.90
2019-04-19T11:22:19.595Z,29.60
2019-04-19T11:24:50.072Z,30.10
2019-04-19T11:27:21.465Z,30.50
2019-04-19T11:29:56.406Z,30.10
2019-04-19T11:32:46.145Z,29.70
2019-04-19T11:35:17.442Z,29.90
2019-04-19T11:37:48.955Z,30.00
2019-04-19T11:40:21.435Z,29.50
2019-04-19T11:43:03.651Z,29.10
2019-04-19T11:45:33.890Z,29.40
2019-04-19T11:48:05.281Z,29.30
2019-04-19T11:50:35.886Z,28.20
2019-04-19T11:53:14.457Z,28.60
2019-04-19T11:55:48.582Z,28.50
2019-04-19T11:58:20.154Z,28.70
2019-04-19T12:01:07.927Z,28.80
2019-04-19T12:03:40.335Z,28.80
2019-04-19T12:06:12.174Z,29.10
2019-04-19T12:08:44.543Z,29.40
2019-04-19T12:11:17.965Z,28.40
2019-04-19T12:13:48.229Z,28.00
2019-04-19T12:16:19.131Z,28.80
2019-04-19T12:18:51.770Z,29.00
2019-04-19T12:21:23.188Z,28.90
2019-04-19T12:23:54.881Z,28.90
2019-04-19T12:26:25.179Z,28.80
2019-04-19T12:28:57.597Z,28.60
2019-04-19T12:31:28.034Z,27.90
2019-04-19T12:33:59.548Z,26.90
2019-04-19T12:36:30.991Z,26.60
2019-04-19T12:39:01.355Z,27.10
2019-04-19T12:41:34.095Z,27.90
2019-04-19T12:44:05.315Z,27.70
2019-04-19T12:46:35.471Z,27.40
2019-04-19T12:49:06.842Z,27.10
2019-04-19T12:51:37.171Z,27.40
2019-04-19T12:54:07.941Z,27.90
2019-04-19T12:56:38.281Z,28.20
2019-04-19T12:59:09.508Z,28.50
2019-04-19T13:02:06.011Z,28.60
2019-04-19T13:04:58.221Z,28.70
2019-04-19T13:07:29.550Z,27.50
2019-04-19T13:09:59.735Z,26.70
2019-04-19T13:12:30.697Z,26.40
2019-04-19T13:15:02.009Z,26.40
2019-04-19T13:17:33.912Z,26.70
2019-04-19T13:20:12.804Z,26.80
2019-04-19T13:22:36.571Z,26.10
2019-04-19T13:25:09.057Z,25.90
2019-04-19T13:27:45.689Z,26.00
2019-04-19T13:30:22.506Z,26.00
2019-04-19T13:32:45.515Z,25.90
2019-04-19T13:35:17.161Z,25.90
2019-04-19T13:38:05.540Z,25.60
2019-04-19T13:41:12.952Z,25.90
2019-04-19T13:43:44.909Z,25.90
2019-04-19T13:46:15.267Z,25.70
2019-04-19T13:48:46.331Z,25.20
2019-04-19T13:51:16.622Z,25.50
2019-04-19T13:53:47.438Z,25.80
2019-04-19T13:56:18.364Z,25.70
2019-04-19T13:58:49.758Z,25.90
2019-04-19T14:01:20.786Z,25.80
2019-04-19T14:03:51.131Z,25.80
2019-04-19T14:06:22.330Z,25.60
2019-04-19T14:08:53.367Z,25.50
2019-04-19T14:11:24.702Z,25.10
2019-04-19T14:13:57.638Z,24.90
2019-04-19T14:16:27.925Z,25.10
2019-04-19T14:18:58.471Z,25.50
2019-04-19T14:21:28.835Z,25.60
2019-04-19T14:23:59.647Z,25.60
2019-04-19T14:26:39.165Z,25.60
2019-04-19T14:29:03.291Z,25.60
2019-04-19T14:31:34.495Z,25.10
2019-04-19T14:34:04.710Z,25.20
2019-04-19T14:36:36.214Z,25.20
2019-04-19T14:39:09.009Z,25.30
2019-04-19T14:41:41.355Z,25.30
2019-04-19T14:44:11.743Z,25.10
2019-04-19T14:46:42.897Z,25.20
2019-04-19T14:49:13.288Z,25.40
2019-04-19T14:51:43.478Z,25.50
2019-04-19T14:54:14.707Z,25.80
2019-04-19T14:56:45.653Z,25.70
2019-04-19T14:59:16.020Z,25.80
2019-04-19T15:01:57.184Z,25.90
2019-04-19T15:04:39.127Z,25.90
2019-04-19T15:07:09.899Z,25.60
2019-04-19T15:09:41.522Z,25.40
2019-04-19T15:12:13.046Z,25.50
2019-04-19T15:14:44.725Z,25.40
2019-04-19T15:17:15.797Z,25.50
2019-04-19T15:19:48.283Z,25.50
2019-04-19T15:22:19.927Z,25.50
2019-04-19T15:24:52.949Z,25.50
2019-04-19T15:27:23.540Z,25.20
2019-04-19T15:29:54.717Z,25.20
2019-04-19T15:32:26.446Z,25.20
2019-04-19T15:34:57.952Z,25.10
2019-04-19T15:37:28.203Z,25.20
2019-04-19T15:39:58.433Z,25.20
2019-04-19T15:42:29.174Z,25.30
2019-04-19T15:45:00.688Z,25.20
2019-04-19T15:47:31.180Z,25.10
2019-04-19T15:50:02.305Z,25.10
2019-04-19T15:52:35.781Z,25.10
2019-04-19T15:55:06.520Z,25.10
2019-04-19T15:57:36.736Z,25.10
2019-04-19T16:00:11.730Z,25.20
2019-04-19T16:02:49.647Z,25.20
2019-04-19T16:05:46.223Z,25.20
2019-04-19T16:08:22.636Z,25.10
2019-04-19T16:11:11.037Z,25.10
2019-04-19T16:13:41.806Z,25.00
2019-04-19T16:16:12.152Z,24.80
2019-04-19T16:18:42.623Z,24.90
2019-04-19T16:21:24.956Z,24.80
2019-04-19T16:23:45.024Z,24.80
2019-04-19T16:26:17.038Z,24.80
2019-04-19T16:28:48.019Z,24.80
2019-04-19T16:31:18.393Z,24.80
2019-04-19T16:33:50.054Z,24.80
2019-04-19T16:36:21.158Z,24.70
2019-04-19T16:38:51.425Z,24.60
2019-04-19T16:41:22.785Z,24.60
2019-04-19T16:43:53.523Z,24.60
2019-04-19T16:46:27.267Z,24.50
2019-04-19T16:48:55.803Z,24.50
2019-04-19T16:51:35.456Z,24.50
2019-04-19T16:54:00.291Z,24.40
2019-04-19T16:56:30.592Z,24.40
2019-04-19T16:59:01.847Z,24.30
2019-04-19T17:01:32.736Z,24.20
2019-04-19T17:04:03.779Z,24.10
2019-04-19T17:06:34.100Z,24.00
2019-04-19T17:09:06.811Z,23.90
2019-04-19T17:11:39.693Z,23.80
2019-04-19T17:14:12.197Z,23.70
2019-04-19T17:17:07.214Z,23.70
2019-04-19T17:20:06.784Z,23.70
2019-04-19T17:22:40.943Z,23.60
2019-04-19T17:25:16.984Z,23.60
2019-04-19T17:27:49.113Z,23.40
2019-04-19T17:30:33.550Z,23.30
2019-04-19T17:33:04.295Z,23.20
2019-04-19T17:35:36.352Z,23.10
2019-04-19T17:38:07.941Z,23.00
2019-04-19T17:40:38.540Z,22.90
2019-04-19T17:43:09.760Z,22.80
2019-04-19T17:45:40.095Z,22.70
2019-04-19T17:48:12.409Z,22.50
2019-04-19T17:50:43.926Z,22.40
2019-04-19T17:53:15.003Z,22.40
2019-04-19T17:55:49.864Z,22.40
2019-04-19T17:58:17.365Z,22.30
2019-04-19T18:00:48.943Z,22.10
2019-04-19T18:03:20.476Z,21.90
2019-04-19T18:05:52.005Z,21.80
2019-04-19T18:08:28.976Z,21.70
2019-04-19T18:10:57.462Z,21.70
2019-04-19T18:13:26.590Z,21.60
2019-04-19T18:15:58.692Z,21.60
2019-04-19T18:18:36.658Z,21.50
2019-04-19T18:21:02.290Z,21.40
2019-04-19T18:23:43.034Z,21.20
2019-04-19T18:26:05.071Z,21.20
2019-04-19T18:28:41.353Z,21.10
2019-04-19T18:31:11.079Z,20.90
2019-04-19T18:33:57.156Z,20.80
2019-04-19T18:36:24.467Z,20.60
2019-04-19T18:38:52.291Z,20.50
2019-04-19T18:41:27.380Z,20.40
2019-04-19T18:44:09.103Z,20.20
2019-04-19T18:46:33.180Z,20.10
2019-04-19T18:49:03.529Z,19.90
2019-04-19T18:51:39.662Z,19.90
2019-04-19T18:54:15.393Z,19.80
2019-04-19T18:56:38.146Z,19.70
2019-04-19T18:59:16.555Z,19.60
2019-04-19T19:01:43.434Z,19.60
2019-04-19T19:04:20.156Z,19.60
2019-04-19T19:06:48.052Z,19.60
2019-04-19T19:09:21.247Z,19.50
2019-04-19T19:12:00.495Z,19.50
2019-04-19T19:14:23.509Z,19.60
2019-04-19T19:16:57.812Z,19.70
2019-04-19T19:19:30.495Z,19.70
2019-04-19T19:22:00.133Z,19.60
2019-04-19T19:24:53.261Z,19.50
2019-04-19T19:27:10.401Z,19.30
2019-04-19T19:29:36.082Z,19.20
2019-04-19T19:32:10.351Z,19.20
2019-04-19T19:34:39.414Z,19.10
2019-04-19T19:37:12.759Z,19.00
2019-04-19T19:39:53.986Z,18.90
2019-04-19T19:42:54.721Z,18.80
2019-04-19T19:45:02.919Z,18.90
2019-04-19T19:48:13.256Z,18.90
2019-04-19T19:50:41.951Z,18.80
2019-04-19T19:53:07.664Z,18.70
2019-04-19T19:55:32.406Z,18.70
2019-04-19T19:57:59.422Z,18.60
2019-04-19T20:00:34.878Z,18.50
2019-04-19T20:03:06.939Z,18.40
2019-04-19T20:05:31.708Z,18.40
2019-04-19T20:07:59.552Z,18.40
2019-04-19T20:10:34.693Z,18.30
2019-04-19T20:13:07.841Z,18.20
2019-04-19T20:15:38.120Z,18.10
2019-04-19T20:18:06.510Z,18.00
2019-04-19T20:20:40.571Z,17.90
2019-04-19T20:23:11.311Z,17.90
2019-04-19T20:25:47.592Z,17.90
2019-04-19T20:28:26.485Z,17.70
2019-04-19T20:31:00.771Z,17.50
2019-04-19T20:33:35.314Z,17.40
2019-04-19T20:36:30.824Z,17.30
2019-04-19T20:39:01.072Z,17.10
2019-04-19T20:41:34.879Z,17.10
2019-04-19T20:44:18.074Z,16.90
2019-04-19T20:46:34.933Z,16.80
2019-04-19T20:49:08.136Z,16.70
2019-04-19T20:51:50.605Z,16.60
2019-04-19T20:54:41.226Z,16.60
2019-04-19T20:57:19.622Z,16.60
2019-04-19T20:59:42.033Z,16.50
2019-04-19T21:02:18.555Z,16.40
2019-04-19T21:04:49.120Z,16.40
2019-04-19T21:07:14.996Z,16.20
2019-04-19T21:09:43.423Z,16.10
2019-04-19T21:12:17.037Z,15.90
2019-04-19T21:14:46.999Z,15.80
2019-04-19T21:17:18.607Z,15.70
2019-04-19T21:19:51.546Z,15.70
2019-04-19T21:22:26.057Z,15.70
2019-04-19T21:25:05.674Z,15.60
2019-04-19T21:27:28.459Z,15.40
2019-04-19T21:30:00.582Z,15.30
2019-04-19T21:32:32.318Z,15.20
2019-04-19T21:35:07.362Z,15.10
2019-04-19T21:37:37.785Z,15.00
2019-04-19T21:40:06.102Z,15.00
2019-04-19T21:42:42.740Z,15.00
2019-04-19T21:45:09.719Z,15.00
2019-04-19T21:47:46.753Z,15.00
2019-04-19T21:50:13.121Z,14.90
2019-04-19T21:52:52.581Z,15.00
2019-04-19T21:55:25.444Z,14.80
2019-04-19T21:57:47.822Z,14.70
2019-04-19T22:00:45.370Z,14.70
2019-04-19T22:03:21.979Z,14.70
2019-04-19T22:05:49.375Z,14.60
2019-04-19T22:08:28.921Z,14.50
2019-04-19T22:10:54.168Z,14.40
2019-04-19T22:13:34.049Z,14.30
2019-04-19T22:15:58.713Z,14.30
2019-04-19T22:18:32.256Z,14.20
2019-04-19T22:21:03.746Z,14.20
2019-04-19T22:23:36.033Z,14.00
2019-04-19T22:26:15.369Z,14.00
2019-04-19T22:28:37.447Z,13.90
2019-04-19T22:31:09.169Z,13.90
2019-04-19T22:33:40.773Z,13.90
2019-04-19T22:36:11.031Z,13.90
2019-04-19T22:38:43.577Z,14.00
2019-04-19T22:41:17.094Z,13.80
2019-04-19T22:43:44.904Z,13.60
2019-04-19T22:46:17.147Z,13.40
2019-04-19T22:48:54.099Z,13.20
2019-04-19T22:51:20.422Z,13.10
2019-04-19T22:53:52.659Z,13.00
2019-04-19T22:56:31.438Z,12.80
2019-04-19T22:58:58.986Z,12.80
2019-04-19T23:01:55.551Z,12.70
2019-04-19T23:04:23.912Z,12.60
2019-04-19T23:06:58.155Z,12.50
2019-04-19T23:09:24.792Z,12.50
2019-04-19T23:11:55.446Z,12.40
2019-04-19T23:14:46.288Z,12.30
2019-04-19T23:17:24.652Z,12.20
2019-04-19T23:19:53.349Z,12.20
2019-04-19T23:22:30.820Z,12.30
2019-04-19T23:24:58.526Z,12.40
2019-04-19T23:27:36.801Z,12.30
2019-04-19T23:30:17.320Z,12.40
2019-04-19T23:32:44.005Z,12.20
2019-04-19T23:35:16.348Z,12.00
2019-04-19T23:37:47.727Z,11.90
2019-04-19T23:40:22.605Z,11.70
2019-04-19T23:42:51.979Z,11.70
2019-04-19T23:45:26.481Z,11.60
2019-04-19T23:47:54.104Z,11.60
2019-04-19T23:50:27.953Z,11.50
2019-04-19T23:52:59.024Z,11.30
2019-04-19T23:55:28.689Z,11.20
2019-04-19T23:57:59.911Z,11.20
